createdAt,value
2018-11-26T00:00:36.687Z,7.30
2018-11-26T00:03:11.343Z,7.30
2018-11-26T00:05:40.527Z,7.40
2018-11-26T00:08:10.714Z,7.30
2018-11-26T00:10:50.478Z,7.30
2018-11-26T00:13:19.005Z,7.30
2018-11-26T00:15:47.529Z,7.30
2018-11-26T00:18:16.096Z,7.20
2018-11-26T00:20:44.671Z,7.20
2018-11-26T00:23:13.313Z,7.20
2018-11-26T00:25:41.849Z,7.20
2018-11-26T00:28:10.490Z,7.20
2018-11-26T00:30:39.309Z,7.20
2018-11-26T00:33:07.884Z,7.20
2018-11-26T00:35:36.426Z,7.20
2018-11-26T00:38:05.003Z,7.20
2018-11-26T00:40:33.477Z,7.20
2018-11-26T00:43:02.136Z,7.20
2018-11-26T00:45:30.679Z,7.30
2018-11-26T00:47:59.182Z,7.30
2018-11-26T00:50:27.798Z,7.30
2018-11-26T00:52:56.314Z,7.30
2018-11-26T00:55:24.956Z,7.30
2018-11-26T00:57:53.449Z,7.20
2018-11-26T01:00:22.032Z,7.20
2018-11-26T01:02:50.639Z,7.20
2018-11-26T01:05:38.546Z,7.20
2018-11-26T01:08:07.295Z,7.20
2018-11-26T01:10:35.864Z,7.20
2018-11-26T01:13:04.370Z,7.20
2018-11-26T01:15:32.965Z,7.10
2018-11-26T01:18:01.482Z,7.10
2018-11-26T01:20:30.140Z,7.10
2018-11-26T01:22:58.733Z,7.10
2018-11-26T01:25:27.373Z,7.10
2018-11-26T01:27:55.975Z,7.10
2018-11-26T01:30:24.542Z,7.10
2018-11-26T01:32:53.066Z,7.00
2018-11-26T01:35:21.880Z,7.00
2018-11-26T01:37:50.413Z,7.10
2018-11-26T01:40:21.457Z,7.10
2018-11-26T01:42:50.477Z,7.10
2018-11-26T01:45:18.947Z,7.20
2018-11-26T01:47:47.503Z,7.20
2018-11-26T01:50:16.459Z,7.20
2018-11-26T01:52:45.021Z,7.20
2018-11-26T01:55:13.524Z,7.20
2018-11-26T01:57:42.042Z,7.20
2018-11-26T02:00:27.642Z,7.20
2018-11-26T02:02:56.162Z,7.20
2018-11-26T02:05:24.812Z,7.20
2018-11-26T02:07:53.355Z,7.20
2018-11-26T02:10:21.893Z,7.20
2018-11-26T02:12:50.395Z,7.20
2018-11-26T02:15:42.727Z,7.20
2018-11-26T02:18:11.720Z,7.20
2018-11-26T02:20:40.481Z,7.20
2018-11-26T02:23:09.169Z,7.20
2018-11-26T02:25:37.846Z,7.20
2018-11-26T02:28:06.822Z,7.20
2018-11-26T02:30:35.367Z,7.10
2018-11-26T02:33:04.031Z,7.00
2018-11-26T02:35:32.645Z,7.00
2018-11-26T02:38:01.216Z,7.00
2018-11-26T02:40:32.036Z,7.00
2018-11-26T02:43:00.535Z,7.10
2018-11-26T02:45:29.633Z,7.10
2018-11-26T02:47:58.200Z,7.10
2018-11-26T02:50:26.716Z,7.20
2018-11-26T02:52:55.309Z,7.20
2018-11-26T02:55:23.904Z,7.10
2018-11-26T02:57:52.557Z,7.10
2018-11-26T03:00:21.049Z,7.10
2018-11-26T03:02:49.630Z,7.10
2018-11-26T03:05:34.900Z,7.10
2018-11-26T03:08:03.457Z,7.10
2018-11-26T03:10:32.046Z,7.10
2018-11-26T03:13:00.572Z,7.20
2018-11-26T03:15:29.056Z,7.10
2018-11-26T03:17:57.616Z,7.10
2018-11-26T03:20:26.122Z,7.10
2018-11-26T03:22:54.680Z,7.10
2018-11-26T03:25:23.328Z,7.20
2018-11-26T03:27:52.052Z,7.10
2018-11-26T03:30:21.746Z,7.20
2018-11-26T03:32:50.371Z,7.20
2018-11-26T03:35:18.917Z,7.10
2018-11-26T03:37:47.455Z,7.20
2018-11-26T03:40:16.028Z,7.10
2018-11-26T03:42:44.734Z,7.10
2018-11-26T03:45:15.380Z,7.00
2018-11-26T03:47:43.993Z,7.10
2018-11-26T03:50:13.411Z,7.10
2018-11-26T03:52:44.145Z,7.10
2018-11-26T03:55:13.113Z,7.00
2018-11-26T03:57:41.642Z,7.00
2018-11-26T04:00:11.802Z,7.10
2018-11-26T04:02:40.425Z,7.00
2018-11-26T04:05:09.794Z,7.00
2018-11-26T04:07:38.390Z,7.10
2018-11-26T04:10:08.685Z,7.00
2018-11-26T04:12:37.266Z,7.00
2018-11-26T04:15:07.722Z,7.00
2018-11-26T04:17:36.276Z,7.00
2018-11-26T04:20:05.141Z,7.00
2018-11-26T04:22:33.604Z,7.00
2018-11-26T04:25:02.240Z,7.00
2018-11-26T04:27:30.783Z,7.00
2018-11-26T04:29:59.373Z,7.00
2018-11-26T04:32:27.998Z,7.00
2018-11-26T04:34:56.568Z,7.00
2018-11-26T04:37:25.074Z,7.00
2018-11-26T04:39:53.678Z,7.00
2018-11-26T04:42:22.245Z,7.00
2018-11-26T04:44:50.857Z,7.00
2018-11-26T04:47:19.356Z,7.00
2018-11-26T04:49:47.835Z,7.00
2018-11-26T04:52:16.443Z,7.00
2018-11-26T04:54:45.028Z,6.90
2018-11-26T04:57:13.580Z,7.00
2018-11-26T04:59:42.069Z,6.90
2018-11-26T05:02:10.614Z,6.90
2018-11-26T05:04:39.459Z,6.90
2018-11-26T05:07:08.025Z,7.00
2018-11-26T05:09:36.583Z,6.90
2018-11-26T05:12:05.227Z,6.90
2018-11-26T05:14:33.766Z,6.90
2018-11-26T05:17:02.271Z,6.90
2018-11-26T05:19:30.822Z,6.90
2018-11-26T05:21:59.423Z,6.90
2018-11-26T05:24:28.024Z,7.00
2018-11-26T05:26:56.684Z,7.00
2018-11-26T05:29:25.173Z,7.00
2018-11-26T05:31:53.750Z,7.00
2018-11-26T05:34:22.257Z,7.00
2018-11-26T05:36:50.777Z,7.00
2018-11-26T05:39:19.307Z,7.00
2018-11-26T05:41:47.883Z,7.00
2018-11-26T05:44:16.458Z,7.00
2018-11-26T05:46:45.018Z,7.00
2018-11-26T05:49:13.482Z,7.00
2018-11-26T05:51:42.175Z,7.00
2018-11-26T05:54:10.805Z,7.00
2018-11-26T05:56:40.091Z,7.00
2018-11-26T05:59:08.576Z,7.00
2018-11-26T06:01:37.238Z,7.00
2018-11-26T06:04:06.223Z,7.00
2018-11-26T06:06:34.940Z,7.10
2018-11-26T06:09:04.186Z,7.10
2018-11-26T06:11:32.764Z,7.10
2018-11-26T06:14:01.346Z,7.10
2018-11-26T06:16:30.048Z,7.10
2018-11-26T06:18:58.554Z,7.10
2018-11-26T06:21:27.322Z,7.10
2018-11-26T06:23:55.873Z,7.10
2018-11-26T06:26:24.865Z,7.00
2018-11-26T06:28:53.428Z,7.10
2018-11-26T06:31:21.985Z,7.00
2018-11-26T06:33:50.568Z,7.00
2018-11-26T06:36:19.151Z,7.00
2018-11-26T06:38:47.833Z,7.00
2018-11-26T06:41:16.413Z,7.00
2018-11-26T06:43:45.016Z,7.00
2018-11-26T06:46:13.611Z,7.00
2018-11-26T06:48:42.180Z,7.00
2018-11-26T06:51:10.821Z,7.00
2018-11-26T06:53:39.438Z,7.00
2018-11-26T06:56:08.038Z,7.00
2018-11-26T06:58:36.606Z,7.00
2018-11-26T07:01:05.485Z,7.10
2018-11-26T07:03:34.019Z,7.00
2018-11-26T07:06:02.523Z,7.10
2018-11-26T07:08:31.024Z,7.10
2018-11-26T07:10:59.565Z,7.00
2018-11-26T07:13:28.215Z,7.00
2018-11-26T07:15:57.489Z,7.00
2018-11-26T07:18:26.120Z,7.00
2018-11-26T07:20:55.214Z,7.00
2018-11-26T07:23:23.796Z,7.00
2018-11-26T07:25:52.467Z,6.90
2018-11-26T07:28:21.038Z,7.00
2018-11-26T07:30:49.659Z,7.00
2018-11-26T07:33:18.315Z,6.90
2018-11-26T07:35:46.781Z,6.90
2018-11-26T07:38:15.361Z,6.90
2018-11-26T07:40:43.870Z,6.90
2018-11-26T07:43:13.324Z,6.90
2018-11-26T07:45:41.912Z,6.90
2018-11-26T07:48:11.802Z,6.80
2018-11-26T07:50:40.333Z,6.80
2018-11-26T07:53:10.094Z,6.90
2018-11-26T07:55:39.421Z,6.90
2018-11-26T07:58:07.990Z,6.90
2018-11-26T08:00:36.596Z,6.90
2018-11-26T08:03:05.321Z,6.90
2018-11-26T08:05:33.894Z,6.90
2018-11-26T08:08:02.431Z,6.90
2018-11-26T08:10:31.058Z,6.90
2018-11-26T08:12:59.766Z,7.00
2018-11-26T08:15:28.828Z,7.00
2018-11-26T08:17:57.409Z,7.00
2018-11-26T08:20:26.091Z,6.90
2018-11-26T08:22:54.657Z,7.00
2018-11-26T08:25:24.062Z,7.00
2018-11-26T08:27:53.108Z,7.00
2018-11-26T08:30:24.903Z,7.00
2018-11-26T08:32:56.035Z,7.00
2018-11-26T08:35:24.637Z,6.90
2018-11-26T08:37:58.386Z,7.00
2018-11-26T08:40:28.760Z,7.00
2018-11-26T08:43:15.412Z,6.90
2018-11-26T08:45:56.966Z,6.90
2018-11-26T08:48:27.876Z,6.90
2018-11-26T08:50:57.657Z,6.90
2018-11-26T08:53:26.312Z,6.90
2018-11-26T08:55:55.026Z,6.90
2018-11-26T08:58:23.573Z,6.90
2018-11-26T09:00:57.456Z,6.90
2018-11-26T09:04:02.436Z,6.80
2018-11-26T09:06:31.078Z,6.90
2018-11-26T09:08:59.727Z,6.80
2018-11-26T09:11:28.414Z,6.90
2018-11-26T09:13:57.022Z,6.90
2018-11-26T09:16:25.595Z,6.90
2018-11-26T09:18:54.302Z,6.90
2018-11-26T09:21:22.853Z,6.80
2018-11-26T09:23:51.338Z,6.80
2018-11-26T09:26:19.898Z,6.80
2018-11-26T09:28:49.259Z,6.80
2018-11-26T09:31:17.783Z,6.80
2018-11-26T09:33:46.451Z,6.80
2018-11-26T09:36:15.068Z,6.90
2018-11-26T09:38:43.649Z,6.90
2018-11-26T09:41:12.237Z,6.80
2018-11-26T09:43:41.122Z,6.90
2018-11-26T09:46:09.719Z,6.90
2018-11-26T09:48:38.338Z,6.80
2018-11-26T09:51:13.888Z,6.80
2018-11-26T09:53:35.533Z,6.80
2018-11-26T09:56:04.686Z,6.80
2018-11-26T09:58:32.854Z,6.80
2018-11-26T10:01:01.403Z,6.70
2018-11-26T10:03:30.122Z,6.70
2018-11-26T10:05:58.699Z,6.50
2018-11-26T10:08:27.317Z,6.50
2018-11-26T10:10:55.842Z,6.50
2018-11-26T10:13:24.390Z,6.50
2018-11-26T10:15:52.989Z,6.50
2018-11-26T10:18:22.118Z,6.50
2018-11-26T10:20:50.722Z,6.50
2018-11-26T10:23:19.220Z,6.50
2018-11-26T10:25:47.967Z,6.50
2018-11-26T10:28:16.526Z,6.50
2018-11-26T10:30:45.081Z,6.60
2018-11-26T10:33:14.959Z,6.60
2018-11-26T10:35:42.248Z,6.60
2018-11-26T10:38:10.802Z,6.60
2018-11-26T10:40:39.352Z,6.60
2018-11-26T10:43:11.675Z,6.50
2018-11-26T10:45:36.932Z,6.60
2018-11-26T10:48:06.353Z,6.60
2018-11-26T10:50:35.076Z,6.60
2018-11-26T10:53:03.660Z,6.60
2018-11-26T10:55:34.265Z,6.60
2018-11-26T10:58:02.951Z,6.70
2018-11-26T11:00:36.758Z,6.70
2018-11-26T11:03:05.615Z,6.70
2018-11-26T11:05:34.453Z,6.60
2018-11-26T11:08:03.011Z,6.60
2018-11-26T11:10:32.723Z,6.60
2018-11-26T11:13:01.332Z,6.70
2018-11-26T11:15:30.734Z,6.70
2018-11-26T11:17:59.758Z,6.70
2018-11-26T11:20:29.204Z,6.80
2018-11-26T11:22:57.835Z,6.80
2018-11-26T11:25:26.530Z,6.80
2018-11-26T11:27:56.381Z,6.90
2018-11-26T11:30:27.476Z,6.80
2018-11-26T11:32:56.031Z,6.80
2018-11-26T11:35:24.689Z,6.80
2018-11-26T11:37:53.912Z,6.80
2018-11-26T11:40:23.615Z,6.80
2018-11-26T11:42:52.405Z,6.80
2018-11-26T11:45:21.290Z,6.80
2018-11-26T11:47:49.877Z,6.80
2018-11-26T11:50:20.073Z,6.80
2018-11-26T11:52:48.835Z,6.90
2018-11-26T11:55:19.254Z,6.90
2018-11-26T11:57:47.919Z,6.90
2018-11-26T12:00:30.180Z,6.90
2018-11-26T12:02:59.261Z,6.90
2018-11-26T12:05:27.892Z,6.90
2018-11-26T12:07:56.462Z,6.90
2018-11-26T12:10:24.970Z,6.90
2018-11-26T12:12:53.528Z,6.90
2018-11-26T12:15:22.036Z,6.90
2018-11-26T12:17:50.667Z,6.80
2018-11-26T12:20:19.228Z,6.90
2018-11-26T12:22:47.871Z,6.90
2018-11-26T12:25:20.423Z,6.80
2018-11-26T12:27:48.960Z,6.90
2018-11-26T12:30:21.571Z,6.90
2018-11-26T12:32:50.272Z,6.70
2018-11-26T12:35:19.891Z,6.60
2018-11-26T12:37:48.570Z,6.60
2018-11-26T12:40:23.156Z,6.60
2018-11-26T12:42:53.010Z,6.50
2018-11-26T12:45:24.023Z,6.60
2018-11-26T12:47:56.925Z,6.60
2018-11-26T12:50:25.662Z,6.60
2018-11-26T12:52:54.520Z,6.60
2018-11-26T12:55:23.889Z,6.70
2018-11-26T12:57:53.172Z,6.70
2018-11-26T13:00:27.870Z,6.70
2018-11-26T13:03:04.882Z,6.70
2018-11-26T13:05:33.438Z,6.70
2018-11-26T13:08:02.036Z,6.70
2018-11-26T13:10:30.591Z,6.80
2018-11-26T13:12:59.233Z,6.80
2018-11-26T13:15:28.930Z,6.80
2018-11-26T13:17:57.683Z,6.70
2018-11-26T13:20:28.639Z,6.70
2018-11-26T13:22:57.697Z,6.80
2018-11-26T13:25:30.562Z,6.80
2018-11-26T13:28:01.918Z,6.80
2018-11-26T13:30:39.111Z,6.70
2018-11-26T13:33:11.966Z,6.70
2018-11-26T13:35:41.259Z,6.70
2018-11-26T13:38:11.203Z,6.70
2018-11-26T13:40:42.573Z,6.70
2018-11-26T13:43:13.295Z,6.80
2018-11-26T13:45:44.732Z,6.80
2018-11-26T13:48:15.365Z,6.80
2018-11-26T13:50:48.763Z,6.80
2018-11-26T13:53:18.042Z,6.80
2018-11-26T13:55:47.318Z,6.80
2018-11-26T13:58:16.129Z,6.80
2018-11-26T14:00:44.995Z,6.80
2018-11-26T14:03:13.631Z,6.80
2018-11-26T14:05:42.482Z,6.80
2018-11-26T14:08:13.366Z,6.80
2018-11-26T14:10:42.636Z,6.70
2018-11-26T14:13:13.703Z,6.80
2018-11-26T14:15:42.473Z,6.80
2018-11-26T14:18:11.283Z,6.70
2018-11-26T14:20:40.021Z,6.60
2018-11-26T14:23:10.011Z,6.60
2018-11-26T14:25:38.997Z,6.70
2018-11-26T14:28:08.394Z,6.70
2018-11-26T14:30:39.052Z,6.70
2018-11-26T14:33:08.128Z,6.70
2018-11-26T14:35:37.051Z,6.70
2018-11-26T14:38:09.794Z,6.70
2018-11-26T14:40:42.260Z,6.70
2018-11-26T14:43:11.454Z,6.70
2018-11-26T14:45:40.311Z,6.80
2018-11-26T14:48:09.004Z,6.70
2018-11-26T14:50:37.938Z,6.60
2018-11-26T14:53:08.993Z,6.60
2018-11-26T14:55:38.699Z,6.60
2018-11-26T14:58:08.388Z,6.50
2018-11-26T15:00:37.187Z,6.50
2018-11-26T15:03:06.474Z,6.50
2018-11-26T15:05:35.194Z,6.50
2018-11-26T15:08:03.926Z,6.50
2018-11-26T15:10:32.579Z,6.50
2018-11-26T15:13:01.304Z,6.50
2018-11-26T15:15:29.902Z,6.50
2018-11-26T15:17:58.519Z,6.50
2018-11-26T15:20:28.465Z,6.60
2018-11-26T15:22:58.031Z,6.50
2018-11-26T15:25:30.695Z,6.50
2018-11-26T15:28:07.473Z,6.60
2018-11-26T15:30:36.082Z,6.50
2018-11-26T15:33:05.148Z,6.40
2018-11-26T15:35:33.827Z,6.30
2018-11-26T15:38:02.632Z,6.30
2018-11-26T15:40:31.252Z,6.20
2018-11-26T15:42:59.982Z,6.20
2018-11-26T15:45:29.806Z,6.20
2018-11-26T15:48:00.390Z,6.10
2018-11-26T15:50:31.900Z,6.20
2018-11-26T15:53:00.900Z,6.20
2018-11-26T15:55:29.539Z,6.30
2018-11-26T15:57:58.155Z,6.30
2018-11-26T16:00:27.153Z,6.30
2018-11-26T16:02:55.724Z,6.30
2018-11-26T16:05:26.298Z,6.20
2018-11-26T16:07:56.599Z,6.20
2018-11-26T16:10:25.214Z,6.20
2018-11-26T16:12:55.547Z,6.20
2018-11-26T16:15:25.678Z,6.20
2018-11-26T16:17:55.702Z,6.30
2018-11-26T16:20:25.629Z,6.30
2018-11-26T16:22:54.393Z,6.30
2018-11-26T16:25:24.070Z,6.30
2018-11-26T16:27:52.644Z,6.30
2018-11-26T16:30:21.283Z,6.30
2018-11-26T16:32:53.063Z,6.30
2018-11-26T16:35:31.634Z,6.30
2018-11-26T16:38:00.363Z,6.30
2018-11-26T16:40:28.973Z,6.30
2018-11-26T16:42:57.500Z,6.30
2018-11-26T16:45:27.378Z,6.20
2018-11-26T16:47:57.758Z,6.30
2018-11-26T16:50:28.648Z,6.30
2018-11-26T16:52:57.236Z,6.30
2018-11-26T16:55:25.950Z,6.30
2018-11-26T16:57:54.903Z,6.30
2018-11-26T17:00:24.766Z,6.30
2018-11-26T17:02:54.685Z,6.40
2018-11-26T17:05:40.902Z,6.40
2018-11-26T17:08:12.864Z,6.40
2018-11-26T17:10:41.720Z,6.30
2018-11-26T17:13:12.207Z,6.20
2018-11-26T17:15:41.394Z,6.20
2018-11-26T17:18:10.634Z,6.30
2018-11-26T17:20:39.459Z,6.30
2018-11-26T17:23:08.286Z,6.30
2018-11-26T17:25:36.960Z,6.30
2018-11-26T17:28:05.644Z,6.30
2018-11-26T17:30:34.302Z,6.40
2018-11-26T17:33:04.806Z,6.30
2018-11-26T17:35:34.291Z,6.40
2018-11-26T17:38:03.247Z,6.40
2018-11-26T17:40:34.652Z,6.40
2018-11-26T17:43:05.715Z,6.40
2018-11-26T17:45:35.625Z,6.30
2018-11-26T17:48:04.931Z,6.30
2018-11-26T17:50:44.524Z,6.30
2018-11-26T17:53:19.523Z,6.30
2018-11-26T17:55:53.297Z,6.30
2018-11-26T17:58:25.618Z,6.40
2018-11-26T18:01:35.523Z,6.30
2018-11-26T18:04:04.355Z,6.40
2018-11-26T18:06:33.953Z,6.30
2018-11-26T18:09:03.558Z,6.40
2018-11-26T18:11:32.209Z,6.40
2018-11-26T18:14:02.873Z,6.40
2018-11-26T18:16:37.386Z,6.40
2018-11-26T18:19:11.234Z,6.40
2018-11-26T18:21:47.623Z,6.40
2018-11-26T18:24:16.676Z,6.40
2018-11-26T18:26:46.313Z,6.40
2018-11-26T18:29:22.401Z,6.50
2018-11-26T18:31:54.551Z,6.50
2018-11-26T18:34:30.233Z,6.50
2018-11-26T18:37:09.181Z,6.50
2018-11-26T18:39:42.539Z,6.50
2018-11-26T18:42:42.291Z,6.50
2018-11-26T18:45:19.589Z,6.60
2018-11-26T18:47:52.233Z,6.50
2018-11-26T18:50:22.637Z,6.60
2018-11-26T18:52:52.300Z,6.60
2018-11-26T18:55:21.422Z,6.50
2018-11-26T18:57:50.571Z,6.60
2018-11-26T19:00:22.076Z,6.60
2018-11-26T19:02:55.166Z,6.60
2018-11-26T19:05:24.798Z,6.60
2018-11-26T19:07:55.118Z,6.60
2018-11-26T19:10:33.808Z,6.60
2018-11-26T19:13:16.752Z,6.60
2018-11-26T19:15:49.759Z,6.60
2018-11-26T19:18:26.202Z,6.60
2018-11-26T19:20:57.562Z,6.70
2018-11-26T19:23:37.353Z,6.60
2018-11-26T19:26:17.964Z,6.70
2018-11-26T19:28:49.061Z,6.60
2018-11-26T19:31:19.583Z,6.60
2018-11-26T19:33:49.397Z,6.70
2018-11-26T19:36:20.411Z,6.60
2018-11-26T19:38:51.045Z,6.60
2018-11-26T19:41:22.120Z,6.60
2018-11-26T19:43:51.391Z,6.60
2018-11-26T19:46:20.384Z,6.60
2018-11-26T19:48:51.166Z,6.50
2018-11-26T19:51:22.669Z,6.60
2018-11-26T19:53:53.014Z,6.50
2018-11-26T19:56:52.372Z,6.50
2018-11-26T19:59:22.647Z,6.60
2018-11-26T20:01:52.438Z,6.50
2018-11-26T20:04:32.178Z,6.50
2018-11-26T20:07:02.544Z,6.60
2018-11-26T20:09:34.132Z,6.60
2018-11-26T20:12:05.195Z,6.60
2018-11-26T20:14:36.030Z,6.60
2018-11-26T20:17:05.888Z,6.60
2018-11-26T20:19:35.287Z,6.60
2018-11-26T20:22:04.544Z,6.60
2018-11-26T20:24:34.141Z,6.60
2018-11-26T20:27:04.064Z,6.70
2018-11-26T20:29:34.589Z,6.70
2018-11-26T20:32:03.388Z,6.70
2018-11-26T20:34:32.195Z,6.70
2018-11-26T20:37:01.290Z,6.70
2018-11-26T20:39:30.844Z,6.70
2018-11-26T20:42:03.830Z,6.70
2018-11-26T20:44:32.559Z,6.60
2018-11-26T20:47:04.702Z,6.60
2018-11-26T20:49:34.717Z,6.60
2018-11-26T20:52:04.904Z,6.60
2018-11-26T20:54:33.562Z,6.60
2018-11-26T20:57:02.250Z,6.60
2018-11-26T20:59:30.953Z,6.70
2018-11-26T21:01:59.523Z,6.70
2018-11-26T21:04:28.136Z,6.70
2018-11-26T21:06:57.487Z,6.70
2018-11-26T21:09:26.131Z,6.70
2018-11-26T21:11:54.808Z,6.70
2018-11-26T21:14:23.382Z,6.70
2018-11-26T21:16:51.995Z,6.70
2018-11-26T21:19:20.571Z,6.70
2018-11-26T21:21:49.117Z,6.70
2018-11-26T21:24:17.678Z,6.70
2018-11-26T21:26:46.255Z,6.70
2018-11-26T21:29:15.029Z,6.70
2018-11-26T21:31:43.472Z,6.70
2018-11-26T21:34:12.257Z,6.60
2018-11-26T21:36:40.946Z,6.70
2018-11-26T21:39:10.521Z,6.60
2018-11-26T21:41:39.218Z,6.40
2018-11-26T21:44:07.843Z,6.40
2018-11-26T21:46:36.415Z,6.40
2018-11-26T21:49:05.107Z,6.40
2018-11-26T21:51:33.664Z,6.40
2018-11-26T21:54:02.301Z,6.30
2018-11-26T21:56:30.855Z,6.20
2018-11-26T21:58:59.434Z,6.20
2018-11-26T22:01:27.986Z,6.20
2018-11-26T22:03:56.572Z,6.20
2018-11-26T22:06:25.217Z,6.30
2018-11-26T22:08:53.780Z,6.30
2018-11-26T22:11:22.369Z,6.30
2018-11-26T22:13:50.864Z,6.40
2018-11-26T22:16:19.359Z,6.30
2018-11-26T22:18:47.953Z,6.40
2018-11-26T22:21:16.590Z,6.40
2018-11-26T22:23:45.175Z,6.50
2018-11-26T22:26:13.708Z,6.50
2018-11-26T22:28:42.299Z,6.50
2018-11-26T22:31:11.041Z,6.50
2018-11-26T22:33:39.636Z,6.50
2018-11-26T22:36:08.372Z,6.60
2018-11-26T22:38:36.916Z,6.60
2018-11-26T22:41:06.330Z,6.60
2018-11-26T22:43:34.844Z,6.60
2018-11-26T22:46:03.441Z,6.60
2018-11-26T22:48:32.079Z,6.60
2018-11-26T22:51:00.665Z,6.60
2018-11-26T22:53:29.208Z,6.60
2018-11-26T22:55:57.770Z,6.50
2018-11-26T22:58:26.401Z,6.60
2018-11-26T23:00:55.223Z,6.50
2018-11-26T23:03:25.137Z,6.60
2018-11-26T23:05:53.744Z,6.60
2018-11-26T23:08:22.335Z,6.60
2018-11-26T23:10:50.944Z,6.60
2018-11-26T23:13:19.547Z,6.60
2018-11-26T23:15:48.228Z,6.60
2018-11-26T23:18:16.787Z,6.60
2018-11-26T23:20:45.390Z,6.60
2018-11-26T23:23:14.053Z,6.50
2018-11-26T23:25:42.750Z,6.40
2018-11-26T23:28:11.419Z,6.40
2018-11-26T23:30:39.924Z,6.40
2018-11-26T23:33:08.945Z,6.40
2018-11-26T23:35:37.497Z,6.40
2018-11-26T23:38:06.286Z,6.40
2018-11-26T23:40:35.861Z,6.40
2018-11-26T23:43:04.469Z,6.40
2018-11-26T23:45:33.040Z,6.30
2018-11-26T23:48:01.596Z,6.30
2018-11-26T23:50:30.206Z,6.30
2018-11-26T23:52:58.760Z,6.40
2018-11-26T23:55:27.334Z,6.40
2018-11-26T23:57:55.883Z,6.40
